Time,TemperatureF,DewpointF,PressureIn,WindDirection,WindDirectionDegrees,WindSpeedMPH,WindSpeedGustMPH,Humidity,HourlyPrecipIn,Conditions,Clouds,dailyrainin,SoftwareType,DateUTC
2015-01-25 00:13:00,32.0,29.0,29.77,SSW,194,0.0,1.0,87,0.00,,,0.00,,2015-01-25 05:13:00,
2015-01-25 00:23:00,32.0,29.0,29.77,SSW,198,0.0,2.0,88,0.00,,,0.00,,2015-01-25 05:23:00,
2015-01-25 00:53:00,31.0,28.0,29.76,SSE,165,0.0,0.0,88,0.00,,,0.00,,2015-01-25 05:53:00,
2015-01-25 01:12:00,30.0,27.0,29.76,SSE,165,0.0,0.0,88,0.00,,,0.00,,2015-01-25 06:12:00,
2015-01-25 01:23:00,29.0,26.0,29.76,SSE,165,0.0,0.0,90,0.00,,,0.00,,2015-01-25 06:23:00,
2015-01-25 01:42:00,29.0,27.0,29.76,SSE,165,0.0,0.0,91,0.00,,,0.00,,2015-01-25 06:42:00,
2015-01-25 01:53:00,29.0,27.0,29.76,SSE,165,0.0,0.0,92,0.00,,,0.00,,2015-01-25 06:53:00,
2015-01-25 02:12:00,29.0,27.0,29.76,SSE,165,0.0,0.0,92,0.00,,,0.00,,2015-01-25 07:12:00,
2015-01-25 02:23:00,30.0,28.0,29.76,SSE,165,0.0,0.0,93,0.00,,,0.00,,2015-01-25 07:23:00,
2015-01-25 02:43:00,30.0,28.0,29.76,ESE,120,0.0,1.0,93,0.00,,,0.00,,2015-01-25 07:43:00,
2015-01-25 02:52:00,31.0,29.0,29.75,ESE,120,0.0,0.0,93,0.00,,,0.00,,2015-01-25 07:52:00,
2015-01-25 03:12:00,30.0,28.0,29.76,ESE,120,0.0,0.0,92,0.00,,,0.00,,2015-01-25 08:12:00,
2015-01-25 03:22:00,30.0,28.0,29.75,ESE,120,0.0,0.0,92,0.00,,,0.00,,2015-01-25 08:22:00,
2015-01-25 03:43:00,30.0,28.0,29.75,SSE,165,0.0,1.0,93,0.00,,,0.00,,2015-01-25 08:43:00,
2015-01-25 03:52:00,31.0,29.0,29.75,SSE,167,0.0,1.0,94,0.00,,,0.00,,2015-01-25 08:52:00,
2015-01-25 04:12:00,32.0,30.0,29.75,SSE,166,0.0,0.0,93,0.00,,,0.00,,2015-01-25 09:12:00,
2015-01-25 04:22:00,32.0,30.0,29.74,South,169,0.0,1.0,94,0.00,,,0.00,,2015-01-25 09:22:00,
2015-01-25 04:54:00,32.0,30.0,29.72,South,172,0.0,0.0,93,0.00,,,0.00,,2015-01-25 09:54:00,
2015-01-25 05:24:00,33.0,31.0,29.73,SW,217,0.0,2.0,93,0.00,,,0.00,,2015-01-25 10:24:00,
2015-01-25 05:44:00,34.0,32.0,29.72,SSW,200,0.0,2.0,91,0.00,,,0.00,,2015-01-25 10:44:00,
2015-01-25 05:54:00,33.0,30.0,29.72,NNE,20,0.0,0.0,90,0.00,,,0.00,,2015-01-25 10:54:00,
2015-01-25 06:13:00,33.0,30.0,29.72,NNE,20,0.0,0.0,90,0.00,,,0.00,,2015-01-25 11:13:00,
2015-01-25 06:23:00,33.0,31.0,29.71,SE,146,0.0,1.0,91,0.00,,,0.00,,2015-01-25 11:23:00,
2015-01-25 06:43:00,33.0,31.0,29.71,SSW,197,0.0,0.0,91,0.00,,,0.00,,2015-01-25 11:43:00,
2015-01-25 06:52:00,33.0,31.0,29.71,SSE,163,0.0,0.0,91,0.00,,,0.00,,2015-01-25 11:52:00,
2015-01-25 07:12:00,33.0,31.0,29.71,SSE,163,0.0,0.0,91,0.00,,,0.00,,2015-01-25 12:12:00,
2015-01-25 07:22:00,33.0,31.0,29.71,SSE,163,0.0,0.0,91,0.00,,,0.00,,2015-01-25 12:22:00,
2015-01-25 07:53:00,34.0,32.0,29.71,WSW,248,1.0,2.0,92,0.00,,,0.00,,2015-01-25 12:53:00,
2015-01-25 08:22:00,34.0,32.0,29.71,East,82,0.0,0.0,91,0.00,,,0.00,,2015-01-25 13:22:00,
2015-01-25 08:43:00,34.0,32.0,29.70,SE,145,0.0,1.0,91,0.00,,,0.00,,2015-01-25 13:43:00,
2015-01-25 08:53:00,35.0,32.0,29.70,East,89,0.0,1.0,90,0.00,,,0.00,,2015-01-25 13:53:00,
2015-01-25 09:23:00,35.0,32.0,29.71,SSE,167,0.0,1.0,89,0.00,,,0.00,,2015-01-25 14:23:00,
2015-01-25 09:53:00,36.0,33.0,29.72,SSE,159,0.0,3.0,87,0.00,,,0.00,,2015-01-25 14:53:00,
2015-01-25 10:13:00,37.0,34.0,29.72,SSW,195,0.0,2.0,87,0.00,,,0.00,,2015-01-25 15:13:00,
2015-01-25 10:22:00,37.0,34.0,29.72,ESE,120,0.0,1.0,87,0.00,,,0.00,,2015-01-25 15:22:00,
2015-01-25 10:45:00,37.0,34.0,29.72,ESE,123,0.0,0.0,88,0.00,,,0.00,,2015-01-25 15:45:00,
2015-01-25 10:54:00,37.0,34.0,29.73,ESE,122,0.0,0.0,89,0.00,,,0.00,,2015-01-25 15:54:00,
2015-01-25 11:24:00,37.0,35.0,29.72,ESE,102,0.0,1.0,91,0.00,,,0.00,,2015-01-25 16:24:00,
2015-01-25 11:44:00,37.0,35.0,29.72,ENE,69,1.0,4.0,91,0.00,,,0.00,,2015-01-25 16:44:00,
2015-01-25 11:54:00,37.0,35.0,29.72,ENE,72,2.0,4.0,91,0.00,,,0.00,,2015-01-25 16:54:00,
2015-01-25 12:13:00,38.0,36.0,29.71,East,82,0.0,3.0,91,0.00,,,0.00,,2015-01-25 17:13:00,
2015-01-25 12:22:00,38.0,35.0,29.71,ENE,62,1.0,3.0,89,0.00,,,0.00,,2015-01-25 17:22:00,
2015-01-25 12:43:00,38.0,35.0,29.70,NE,53,1.0,2.0,89,0.00,,,0.00,,2015-01-25 17:43:00,
2015-01-25 12:53:00,39.0,36.0,29.70,East,80,1.0,3.0,88,0.01,,,0.01,,2015-01-25 17:53:00,
2015-01-25 13:13:00,39.0,36.0,29.69,SE,125,1.0,3.0,88,0.01,,,0.01,,2015-01-25 18:13:00,
2015-01-25 13:23:00,39.0,36.0,29.68,SW,235,1.0,2.0,89,0.01,,,0.01,,2015-01-25 18:23:00,
2015-01-25 13:43:00,39.0,36.0,29.68,SE,141,0.0,1.0,89,0.01,,,0.01,,2015-01-25 18:43:00,
2015-01-25 13:54:00,39.0,36.0,29.68,SW,218,0.0,2.0,89,0.01,,,0.02,,2015-01-25 18:54:00,
2015-01-25 14:13:00,39.0,36.0,29.67,ESE,108,0.0,2.0,89,0.01,,,0.02,,2015-01-25 19:13:00,
2015-01-25 14:23:00,39.0,36.0,29.67,ENE,65,0.0,2.0,89,0.01,,,0.02,,2015-01-25 19:23:00,
2015-01-25 14:42:00,39.0,36.0,29.66,NE,56,0.0,1.0,90,0.01,,,0.02,,2015-01-25 19:42:00,
2015-01-25 14:53:00,39.0,36.0,29.66,ESE,112,0.0,2.0,90,0.01,,,0.03,,2015-01-25 19:53:00,
2015-01-25 15:12:00,39.0,36.0,29.66,South,169,0.0,3.0,90,0.02,,,0.04,,2015-01-25 20:12:00,
2015-01-25 15:22:00,39.0,37.0,29.65,East,98,0.0,3.0,91,0.03,,,0.05,,2015-01-25 20:22:00,
2015-01-25 15:42:00,39.0,37.0,29.65,ENE,72,1.0,4.0,92,0.04,,,0.06,,2015-01-25 20:42:00,
2015-01-25 15:53:00,39.0,37.0,29.65,ENE,64,0.0,2.0,92,0.03,,,0.06,,2015-01-25 20:53:00,
2015-01-25 16:12:00,39.0,37.0,29.65,SE,125,0.0,2.0,93,0.03,,,0.07,,2015-01-25 21:12:00,
2015-01-25 16:23:00,39.0,37.0,29.65,SE,138,0.0,1.0,93,0.04,,,0.09,,2015-01-25 21:23:00,
2015-01-25 16:54:00,39.0,37.0,29.64,East,85,0.0,1.0,94,0.07,,,0.13,,2015-01-25 21:54:00,
2015-01-25 17:23:00,39.0,38.0,29.65,SSE,149,1.0,4.0,95,0.06,,,0.15,,2015-01-25 22:23:00,
2015-01-25 17:43:00,38.0,37.0,29.65,East,86,0.0,2.0,96,0.05,,,0.16,,2015-01-25 22:43:00,
2015-01-25 17:54:00,38.0,37.0,29.65,ESE,105,0.0,3.0,96,0.05,,,0.18,,2015-01-25 22:54:00,
2015-01-25 18:23:00,38.0,37.0,29.66,ESE,111,0.0,1.0,96,0.06,,,0.21,,2015-01-25 23:23:00,
2015-01-25 18:42:00,38.0,37.0,29.67,ESE,111,0.0,0.0,96,0.07,,,0.23,,2015-01-25 23:42:00,